M I D A S
Marine Information and Data Acquisition System
Tripno 1249 of the Zeeleeuw from 2007-04-20 07:17:21 to 2007-04-20 08:00:09
Back to CruiseResearch ActivitiesStationsMapUnderway DataData graphs

EquipmentUnitsComment
TimeDGPSUTC
LatitudeDGPSDM.mWGS84
LongitudeDGPSDM.mWGS84
TemperatureSBE03/SBE38deg celciusITS90
ConductivitySBE21S/mITS90
SalinitySBE21 Practical Salinity Units
ChlorophylAChelsea fluorimeterg/lCalibrated in Aceton
Missing or incorrect values are displayed as -999
Sea surface data collected by the RV Zeeleeuw from 2007-04-20 07:18:22 to 2007-04-20 12:17:08
Time Latitude Longitude Temperature Conductivity Salinity ChlorophylA
2007-04-20 07:19:28 51°13.6 2°56.069 19.2877 0.067765 0.364622 -2.871232
2007-04-20 07:20:28 51°13.627 2°55.985 19.3134 0.067765 0.364657 -2.871232
2007-04-20 07:21:28 51°13.659 2°55.895 19.3221 0.067765 0.364685 -2.871232
2007-04-20 07:22:28 51°13.683 2°55.817 19.3154 0.067765 0.364713 -2.871232
2007-04-20 07:23:27 51°13.693 2°55.761 19.3279 0.067765 0.364734 -2.871232
2007-04-20 07:24:28 51°13.697 2°55.751 19.3712 0.067765 0.364762 -2.871232
2007-04-20 07:25:27 51°13.706 2°55.761 19.2598 0.067662 0.364219 -2.871232
2007-04-20 07:26:28 51°13.692 2°55.741 19.3504 0.067765 0.36479 -2.871232
2007-04-20 07:27:28 51°13.715 2°55.719 19.3836 0.067765 0.364819 -2.871232
2007-04-20 07:28:27 51°13.791 2°55.663 19.1999 0.067765 0.364833 -2.871232
2007-04-20 07:29:27 51°13.882 2°55.597 19.3012 0.067765 0.364861 -2.871232
2007-04-20 07:30:27 51°14.002 2°55.509 19.0508 0.067765 0.364889 -2.871232
2007-04-20 07:31:28 51°14.149 2°55.4 19.2957 0.067765 0.364924 -2.871232
2007-04-20 07:32:27 51°14.275 2°55.229 19.279 0.067765 0.364974 -2.871232
2007-04-20 07:33:27 51°14.374 2°54.998 18.9014 0.067765 0.365051 -2.871232
2007-04-20 07:34:27 51°14.4 2°54.704 18.9315 0.067765 0.365009 -2.871232
2007-04-20 07:35:27 51°14.365 2°54.399 18.9563 0.067662 0.364543 -2.871232
2007-04-20 07:36:28 51°14.271 2°54.11 18.9781 0.067662 0.364578 -2.871232
2007-04-20 07:37:27 51°14.168 2°53.836 19.0108 0.067765 0.365199 -2.871232
2007-04-20 07:38:28 51°14.082 2°53.595 18.9899 0.067662 0.364677 -2.871232
2007-04-20 07:39:27 51°14.037 2°53.437 19.1819 0.067765 0.365284 -2.871232
2007-04-20 07:40:28 51°13.984 2°53.322 19.1321 0.067765 0.365341 -2.871232
2007-04-20 07:41:27 51°13.934 2°53.225 19.1291 0.067663 0.364797 -2.871232
2007-04-20 07:42:27 51°13.887 2°53.131 19.1202 0.067663 0.364839 -2.871232
2007-04-20 07:43:27 51°13.844 2°53.036 19.1451 0.067663 0.364874 -2.871232
2007-04-20 07:44:27 51°13.802 2°52.943 19.1381 0.06756 0.364337 -2.871232
2007-04-20 07:45:28 51°13.758 2°52.851 19.1229 0.067663 0.364945 -2.871232
2007-04-20 07:46:27 51°13.715 2°52.764 19.1429 0.067663 0.36498 -2.871232
2007-04-20 07:47:27 51°13.669 2°52.678 19.1545 0.067663 0.365016 -2.871232
2007-04-20 07:48:27 51°13.626 2°52.575 19.15 0.067663 0.365044 -2.871232
2007-04-20 07:49:27 51°13.65 2°52.451 19.164 0.06756 0.364542 -2.871232
2007-04-20 07:50:27 51°13.709 2°52.493 19.2079 0.06756 0.364598 -2.871232
2007-04-20 07:51:27 51°13.795 2°52.718 19.1751 0.067663 0.365143 -2.871232
2007-04-20 07:52:28 51°13.898 2°52.979 19.2071 0.06756 0.36464 -2.871232
2007-04-20 07:53:27 51°13.99 2°53.242 19.2232 0.067663 0.365256 -2.871232
2007-04-20 07:54:28 51°14.071 2°53.525 19.2313 0.06756 0.364718 -2.871232
2007-04-20 07:55:27 51°14.164 2°53.788 19.2248 0.06756 0.364768 -2.871232
2007-04-20 07:56:28 51°14.257 2°54.064 19.2426 0.06756 0.364831 -2.871232
2007-04-20 07:57:27 51°14.359 2°54.317 19.2269 0.06756 0.364874 -2.871232
2007-04-20 07:58:27 51°14.398 2°54.626 19.2426 0.06756 0.364952 -2.871232
2007-04-20 07:59:28 51°14.374 2°54.955 19.2603 0.06756 0.365022 -2.871232
2007-04-20 08:00:27 51°14.287 2°55.227 19.2661 0.06756 0.365086 -2.871232
2007-04-20 08:01:28 51°14.18 2°55.367 19.2844 0.06756 0.365164 -2.871232
2007-04-20 08:02:27 51°14.087 2°55.475 19.2899 0.06756 0.365221 -2.871232
2007-04-20 08:03:28 51°14.013 2°55.58 19.2874 0.067457 0.364703 -2.871232
2007-04-20 08:04:27 51°13.948 2°55.597 19.2987 0.06756 0.365341 -2.871232
2007-04-20 08:05:28 51°13.942 2°55.602 19.3237 0.06756 0.365398 -2.871232
2007-04-20 08:06:28 51°13.95 2°55.624 19.3258 0.067457 0.364845 -2.871232
2007-04-20 08:07:28 51°13.96 2°55.577 19.317 0.067457 0.364902 -2.871232
2007-04-20 08:08:27 51°13.982 2°55.519 19.3427 0.067457 0.364944 -2.871232
2007-04-20 08:09:27 51°14 2°55.47 19.335 0.067457 0.36498 -2.871232
2007-04-20 08:10:28 51°14.006 2°55.457 19.3739 0.067457 0.365029 -2.871232
2007-04-20 08:11:27 51°14.006 2°55.454 19.3681 0.067457 0.365065 -2.871232
2007-04-20 08:12:28 51°14.007 2°55.453 19.3799 0.067457 0.365093 -2.871232
2007-04-20 08:13:28 51°14.006 2°55.452 19.3916 0.067457 0.365136 -2.871232
2007-04-20 08:14:28 51°14.006 2°55.451 19.3947 0.067457 0.365171 -2.871232
2007-04-20 08:15:28 51°14.005 2°55.45 19.387 0.067354 0.364632 -2.871232
2007-04-20 08:16:28 51°14.005 2°55.451 19.4081 0.067354 0.364668 -2.871232
2007-04-20 08:17:28 51°14.004 2°55.452 19.4092 0.067354 0.364703 -2.871232
2007-04-20 08:18:28 51°14.003 2°55.455 19.4256 0.067457 0.365321 -2.871232
2007-04-20 08:19:28 51°14.004 2°55.451 19.4379 0.067354 0.364781 -2.871232
2007-04-20 08:20:28 51°14.004 2°55.449 19.4478 0.067354 0.364817 -2.871232
2007-04-20 08:21:28 51°14.005 2°55.449 19.4558 0.067457 0.36542 -2.871232
2007-04-20 08:22:28 51°14.005 2°55.45 19.4696 0.067354 0.364873 -2.871232
2007-04-20 08:23:28 51°14.005 2°55.451 19.4799 0.067457 0.365484 -2.871232
2007-04-20 08:24:28 51°14.005 2°55.451 19.4895 0.067354 0.364937 -2.871232
2007-04-20 08:25:28 51°14.005 2°55.451 19.5005 0.067354 0.364959 -2.871232
2007-04-20 08:26:28 51°14.005 2°55.45 19.5089 0.067354 0.364987 -2.871232
2007-04-20 08:27:28 51°14.005 2°55.45 19.5225 0.067457 0.365591 -2.871232
2007-04-20 08:28:28 51°14.005 2°55.451 19.5384 0.067354 0.365051 -2.871232
2007-04-20 08:29:28 51°14.005 2°55.45 19.5519 0.067354 0.365079 -2.871232
2007-04-20 08:30:28 51°14.005 2°55.451 19.5664 0.067354 0.365108 -2.871232
2007-04-20 08:31:28 51°14.005 2°55.451 19.5753 0.067457 0.365719 -2.871232
2007-04-20 08:32:28 51°14.005 2°55.451 19.571 0.067354 0.365179 -2.871232
2007-04-20 08:33:28 51°14.005 2°55.451 19.601 0.067457 0.36579 -2.871232
2007-04-20 08:34:28 51°14.004 2°55.451 19.5995 0.067457 0.365826 -2.871232
2007-04-20 08:35:28 51°14.004 2°55.451 19.6125 0.067354 0.365293 -2.871232
2007-04-20 08:36:28 51°14.005 2°55.452 19.589 0.067354 0.365336 -2.871232
2007-04-20 08:37:28 51°14.005 2°55.452 19.6291 0.067354 0.365378 -2.871232
2007-04-20 08:38:28 51°14.005 2°55.452 19.6447 0.067354 0.365414 -2.871232
2007-04-20 08:39:28 51°14.005 2°55.452 19.6539 0.067354 0.365457 -2.871232
2007-04-20 08:40:28 51°14.005 2°55.451 19.6654 0.067354 0.365492 -2.871232
2007-04-20 08:41:28 51°14.006 2°55.452 19.6744 0.067354 0.365521 -2.871232
2007-04-20 08:42:28 51°14.006 2°55.452 19.6815 0.067354 0.365556 -2.871232
2007-04-20 08:43:28 51°14.005 2°55.452 19.6992 0.067354 0.365592 -2.871232
2007-04-20 08:44:28 51°14.005 2°55.453 19.6991 0.067251 0.365051 -2.871232
2007-04-20 08:45:28 51°14.005 2°55.452 19.7068 0.067251 0.365094 -2.871232
2007-04-20 08:46:28 51°14.005 2°55.452 19.7786 0.067354 0.365706 -2.871232
2007-04-20 08:47:28 51°14.005 2°55.452 19.7565 0.067354 0.365749 -2.871232
2007-04-20 08:48:28 51°14.005 2°55.452 19.7606 0.067354 0.365792 -2.871232
2007-04-20 08:49:28 51°14.005 2°55.452 19.7788 0.067251 0.365265 -2.871232
2007-04-20 08:50:28 51°14.008 2°55.455 19.783 0.067354 0.365885 -2.871232
2007-04-20 08:51:28 51°14.005 2°55.451 19.7993 0.067251 0.365358 -2.871232
2007-04-20 08:52:28 51°14.004 2°55.451 19.7891 0.067251 0.365408 -2.871232
2007-04-20 08:53:28 51°14.003 2°55.449 19.8044 0.067354 0.366042 -2.871232
2007-04-20 08:54:28 51°14.003 2°55.449 19.7981 0.067251 0.365515 -2.871232
2007-04-20 08:55:28 51°14.002 2°55.448 19.8105 0.067354 0.366135 -2.871232
2007-04-20 08:56:28 51°14.002 2°55.448 19.836 0.067251 0.365601 -2.871232
2007-04-20 08:57:28 51°14.001 2°55.448 19.8447 0.067251 0.365637 -2.871232
2007-04-20 08:58:28 51°14.002 2°55.448 19.8559 0.067251 0.365672 -2.871232
2007-04-20 08:59:28 51°14.003 2°55.448 19.8682 0.067251 0.365708 -2.871232
2007-04-20 09:00:28 51°14.003 2°55.448 19.8569 0.067251 0.365744 -2.871232
2007-04-20 09:01:28 51°14.004 2°55.45 19.8747 0.067251 0.36578 -2.871232
2007-04-20 09:02:28 51°14.004 2°55.449 19.8784 0.067251 0.365815 -2.871232
2007-04-20 09:03:28 51°14.006 2°55.452 19.8746 0.067251 0.365851 -2.871232
2007-04-20 09:04:28 51°14.004 2°55.45 19.895 0.067251 0.365894 -2.871232
2007-04-20 09:05:28 51°14.004 2°55.45 19.8965 0.067148 0.365359 -2.871232
2007-04-20 09:06:28 51°14.003 2°55.448 19.9127 0.067251 0.36598 -2.871232
2007-04-20 09:07:28 51°14.003 2°55.448 19.9193 0.067251 0.366023 -2.871232
2007-04-20 09:08:28 51°14.003 2°55.448 19.9213 0.067148 0.365481 -2.871232
2007-04-20 09:09:28 51°14.003 2°55.449 19.9294 0.067251 0.366109 -2.871232
2007-04-20 09:10:28 51°14.003 2°55.449 19.9373 0.067148 0.365574 -2.871232
2007-04-20 09:11:28 51°14.004 2°55.451 19.9473 0.067251 0.366202 -2.871232
2007-04-20 09:12:28 51°14.004 2°55.451 19.9529 0.067251 0.366252 -2.871232
2007-04-20 09:13:28 51°14.004 2°55.451 19.9694 0.067251 0.366303 -2.871232
2007-04-20 09:14:28 51°14.004 2°55.451 19.9743 0.067148 0.365774 -2.871232
2007-04-20 09:15:28 51°14.004 2°55.451 19.9917 0.067148 0.365825 -2.871232
2007-04-20 09:16:28 51°14.004 2°55.451 20.0006 0.067148 0.365882 -2.871232
2007-04-20 09:17:28 51°14.004 2°55.45 20.0126 0.067148 0.365925 -2.871232
2007-04-20 09:18:28 51°14.004 2°55.45 20.0042 0.067148 0.365975 -2.871232
2007-04-20 09:19:28 51°14.004 2°55.45 20.068 0.067148 0.366026 -2.871232
2007-04-20 09:20:28 51°14.004 2°55.449 20.0278 0.067148 0.366069 -2.871232
2007-04-20 09:21:28 51°14.004 2°55.449 20.067 0.067148 0.366126 -2.871232
2007-04-20 09:22:28 51°14.004 2°55.449 20.0566 0.067045 0.365597 -2.871232
2007-04-20 09:23:28 51°14.004 2°55.45 20.0524 0.067045 0.365648 -2.871232
2007-04-20 09:24:28 51°14.004 2°55.451 20.0675 0.067148 0.366284 -2.871232
2007-04-20 09:25:28 51°14.005 2°55.451 20.0877 0.067148 0.366342 -2.871232
2007-04-20 09:26:28 51°14.005 2°55.451 20.0753 0.067045 0.36582 -2.871232
2007-04-20 09:27:28 51°14.004 2°55.451 20.092 0.067045 0.365877 -2.871232
2007-04-20 09:28:28 51°14.005 2°55.451 20.1425 0.067045 0.365935 -2.871232
2007-04-20 09:29:28 51°14.005 2°55.451 20.1302 0.067045 0.365992 -2.871232
2007-04-20 09:30:28 51°14.005 2°55.451 20.131 0.067045 0.366043 -2.871232
2007-04-20 09:31:28 51°14.005 2°55.451 20.1333 0.067045 0.366093 -2.871232
2007-04-20 09:32:28 51°14.005 2°55.451 20.1313 0.067045 0.366151 -2.871232
2007-04-20 09:33:28 51°14.005 2°55.451 20.1535 0.067045 0.366208 -2.871232
2007-04-20 09:34:28 51°14.005 2°55.451 20.1718 0.066942 0.365686 -2.871232
2007-04-20 09:35:28 51°14.006 2°55.451 20.1863 0.066942 0.365743 -2.871232
2007-04-20 09:36:28 51°14.005 2°55.451 20.1646 0.066942 0.365801 -2.871232
2007-04-20 09:37:28 51°14.005 2°55.451 20.1764 0.067045 0.366439 -2.871232
2007-04-20 09:38:28 51°14.006 2°55.45 20.2127 0.066942 0.365916 -2.871232
2007-04-20 09:39:28 51°14.005 2°55.451 20.1957 0.066942 0.365974 -2.871232
2007-04-20 09:40:28 51°14.005 2°55.451 20.2318 0.066942 0.366039 -2.871232
2007-04-20 09:41:28 51°14.004 2°55.451 20.2253 0.066839 0.365515 -2.871232
2007-04-20 09:42:28 51°14.004 2°55.451 20.1888 0.066942 0.366154 -2.871232
2007-04-20 09:43:28 51°14.004 2°55.451 20.2395 0.066942 0.366197 -2.871232
2007-04-20 09:44:28 51°14.004 2°55.451 20.2536 0.066839 0.365674 -2.871232
2007-04-20 09:45:28 51°14.004 2°55.451 20.2342 0.066942 0.366298 -2.871232
2007-04-20 09:46:28 51°14.004 2°55.451 20.2513 0.066839 0.365768 -2.871232
2007-04-20 09:47:28 51°14.004 2°55.451 20.2477 0.066839 0.365811 -2.871232
2007-04-20 09:48:28 51°14.005 2°55.451 20.2617 0.066942 0.366443 -2.871232
2007-04-20 09:49:28 51°14.004 2°55.451 20.2799 0.066839 0.365912 -2.871232
2007-04-20 09:50:28 51°14.004 2°55.451 20.257 0.066839 0.365962 -2.871232
2007-04-20 09:51:28 51°14.005 2°55.451 20.2762 0.066839 0.366013 -2.871232
2007-04-20 09:52:28 51°14.005 2°55.451 20.2887 0.066839 0.366063 -2.871232
2007-04-20 09:53:28 51°14.005 2°55.451 20.273 0.066839 0.366114 -2.871232
2007-04-20 09:54:28 51°14.005 2°55.451 20.2963 0.066839 0.366172 -2.871232
2007-04-20 09:55:28 51°14.005 2°55.451 20.3065 0.066839 0.36623 -2.871232
2007-04-20 09:56:28 51°14.004 2°55.451 20.3158 0.066839 0.366287 -2.871232
2007-04-20 09:57:28 51°14.004 2°55.451 20.3071 0.066839 0.366338 -2.871232
2007-04-20 09:58:28 51°14.004 2°55.451 20.3192 0.066839 0.366396 -2.871232
2007-04-20 09:59:28 51°14.004 2°55.451 20.3451 0.066736 0.365872 -2.871232
2007-04-20 10:00:28 51°14.004 2°55.451 20.3025 0.066736 0.365922 -2.871232
2007-04-20 10:01:28 51°14.004 2°55.451 20.3357 0.066736 0.36598 -2.871232
2007-04-20 10:02:28 51°14.004 2°55.451 20.3708 0.066736 0.366031 -2.871232
2007-04-20 10:03:28 51°14.004 2°55.45 20.3836 0.066736 0.366089 -2.871232
2007-04-20 10:04:28 51°14.004 2°55.45 20.379 0.066736 0.366147 -2.871232
2007-04-20 10:05:28 51°14.005 2°55.451 20.3732 0.066736 0.366204 -2.871232
2007-04-20 10:06:28 51°14.005 2°55.451 20.4155 0.066736 0.366262 -2.871232
2007-04-20 10:07:28 51°14.005 2°55.451 20.4212 0.066736 0.36632 -2.871232
2007-04-20 10:08:28 51°14.005 2°55.451 20.3789 0.066736 0.366378 -2.871232
2007-04-20 10:09:28 51°14.004 2°55.451 20.329 0.066736 0.366429 -2.871232
2007-04-20 10:10:28 51°14.004 2°55.451 20.453 0.066634 0.365918 -2.871232
2007-04-20 10:11:28 51°14.004 2°55.45 20.38 0.066736 0.366552 -2.871232
2007-04-20 10:12:28 51°14.004 2°55.45 20.4048 0.066634 0.366034 -2.871232
2007-04-20 10:13:28 51°14.004 2°55.451 20.4523 0.066634 0.366078 -2.871232
2007-04-20 10:14:28 51°14.003 2°55.45 20.4807 0.066736 0.366727 -2.871232
2007-04-20 10:15:28 51°14.003 2°55.45 20.4512 0.066634 0.366194 -2.871232
2007-04-20 10:16:28 51°14.003 2°55.45 20.3873 0.066634 0.366245 -2.871232
2007-04-20 10:17:28 51°14.01 2°55.455 20.407 0.066634 0.366296 -2.871232
2007-04-20 10:18:28 51°14.004 2°55.451 20.4876 0.066634 0.366346 -2.871232
2007-04-20 10:19:28 51°14.004 2°55.45 20.4853 0.066634 0.366404 -2.871232
2007-04-20 10:20:28 51°14.004 2°55.45 20.4648 0.066634 0.366463 -2.871232
2007-04-20 10:21:28 51°14.002 2°55.449 20.4742 0.066634 0.366528 -2.871232
2007-04-20 10:22:28 51°13.999 2°55.447 20.4674 0.066531 0.366002 -2.871232
2007-04-20 10:23:28 51°14.005 2°55.451 20.4743 0.066531 0.36606 -2.871232
2007-04-20 10:24:28 51°14.005 2°55.451 20.4898 0.066634 0.366703 -2.871232
2007-04-20 10:25:28 51°14.006 2°55.451 20.5115 0.066634 0.366768 -2.871232
2007-04-20 10:26:28 51°14.005 2°55.451 20.4901 0.066634 0.366826 -2.871232
2007-04-20 10:27:28 51°14.006 2°55.451 20.503 0.066531 0.366293 -2.871232
2007-04-20 10:28:28 51°14.005 2°55.451 20.4488 0.066531 0.366351 -2.871232
2007-04-20 10:29:28 51°14.005 2°55.451 20.5305 0.066531 0.366402 -2.871232
2007-04-20 10:30:28 51°14.005 2°55.451 20.5258 0.066531 0.36646 -2.871232
2007-04-20 10:31:28 51°14.005 2°55.451 20.5338 0.066531 0.366518 -2.871232
2007-04-20 10:32:28 51°14.005 2°55.451 20.5179 0.066531 0.366584 -2.871232
2007-04-20 10:33:28 51°14.005 2°55.451 20.5274 0.066428 0.366057 -2.871232
2007-04-20 10:34:28 51°14.005 2°55.45 20.5252 0.066428 0.366115 -2.871232
2007-04-20 10:35:28 51°14.005 2°55.451 20.5129 0.066531 0.366759 -2.871232
2007-04-20 10:36:28 51°14.004 2°55.451 20.5464 0.066531 0.36681 -2.871232
2007-04-20 10:37:28 51°14.004 2°55.451 20.5581 0.066531 0.366868 -2.871232
2007-04-20 10:38:28 51°14.005 2°55.451 20.5519 0.066531 0.366919 -2.871232
2007-04-20 10:39:28 51°14.004 2°55.449 20.5732 0.066531 0.366971 -2.871232
2007-04-20 10:40:28 51°14.005 2°55.448 20.5583 0.066428 0.366436 -2.871232
2007-04-20 10:41:28 51°14.006 2°55.448 20.5676 0.066428 0.366487 -2.871232
2007-04-20 10:42:28 51°14.005 2°55.449 20.5467 0.066428 0.366545 -2.871232
2007-04-20 10:43:28 51°14.005 2°55.45 20.5517 0.066531 0.367161 -2.871232
2007-04-20 10:44:28 51°14.006 2°55.45 20.5429 0.066428 0.366633 -2.871232
2007-04-20 10:45:28 51°14.006 2°55.45 20.5751 0.066428 0.366684 -2.871232
2007-04-20 10:46:28 51°14.005 2°55.45 20.6113 0.066428 0.366742 -2.871232
2007-04-20 10:47:28 51°14.005 2°55.45 20.5791 0.066428 0.366801 -2.871232
2007-04-20 10:48:28 51°14.013 2°55.451 20.6003 0.066428 0.366852 -2.871232
2007-04-20 10:49:28 51°14.006 2°55.45 20.6057 0.066428 0.366911 -2.871232
2007-04-20 10:50:28 51°14.005 2°55.448 20.605 0.066428 0.366969 -2.871232
2007-04-20 10:51:28 51°14.007 2°55.45 20.6085 0.066428 0.36702 -2.871232
2007-04-20 10:52:28 51°14.004 2°55.451 20.6324 0.066428 0.367079 -2.871232
2007-04-20 10:53:28 51°14.001 2°55.451 20.6266 0.066325 0.366543 -2.871232
2007-04-20 10:54:28 51°14.001 2°55.451 20.6168 0.066428 0.367174 -2.871232
2007-04-20 10:55:28 51°14.003 2°55.452 20.6383 0.066325 0.366638 -2.871232
2007-04-20 10:56:28 51°14.003 2°55.452 20.6373 0.066325 0.36669 -2.871232
2007-04-20 10:57:28 51°14.003 2°55.45 20.6526 0.066325 0.366734 -2.871232
2007-04-20 10:58:28 51°14.004 2°55.451 20.6258 0.066428 0.36738 -2.871232
2007-04-20 10:59:28 51°14.003 2°55.452 20.6406 0.066325 0.366843 -2.871232
2007-04-20 11:00:28 51°14.002 2°55.451 20.6559 0.066325 0.366895 -2.871232
2007-04-20 11:01:28 51°14.003 2°55.449 20.6481 0.066325 0.366953 -2.871232
2007-04-20 11:02:28 51°14.004 2°55.448 20.6471 0.066325 0.367012 -2.871232
2007-04-20 11:03:28 51°14.004 2°55.447 20.6698 0.066325 0.367063 -2.871232
2007-04-20 11:04:28 51°14.004 2°55.447 20.666 0.066325 0.367122 -2.871232
2007-04-20 11:05:28 51°14.004 2°55.446 20.6874 0.066222 0.366585 -2.871232
2007-04-20 11:06:28 51°14.004 2°55.446 20.6588 0.066222 0.366644 -2.871232
2007-04-20 11:07:28 51°14.004 2°55.446 20.6698 0.066325 0.367291 -2.871232
2007-04-20 11:08:28 51°14.005 2°55.448 20.6843 0.066222 0.366761 -2.871232
2007-04-20 11:09:28 51°14.004 2°55.448 20.6701 0.066222 0.36682 -2.871232
2007-04-20 11:10:28 51°14.004 2°55.449 20.6743 0.066222 0.366879 -2.871232
2007-04-20 11:11:28 51°14.004 2°55.45 20.698 0.066325 0.367526 -2.871232
2007-04-20 11:12:28 51°14.004 2°55.45 20.7029 0.066222 0.366989 -2.871232
2007-04-20 11:13:28 51°14.004 2°55.451 20.6958 0.066119 0.366459 -2.871232
2007-04-20 11:14:28 51°14.004 2°55.452 20.6968 0.066222 0.367099 -2.871232
2007-04-20 11:15:28 51°14.004 2°55.449 20.707 0.066119 0.366569 -2.871232
2007-04-20 11:16:28 51°14.004 2°55.449 20.6994 0.066119 0.366628 -2.871232
2007-04-20 11:17:28 51°14.004 2°55.448 20.6908 0.066119 0.366687 -2.871232
2007-04-20 11:18:28 51°14.004 2°55.448 20.6827 0.066222 0.367327 -2.871232
2007-04-20 11:19:28 51°14.004 2°55.447 20.709 0.066222 0.367379 -2.871232
2007-04-20 11:20:28 51°14.004 2°55.447 20.7259 0.066119 0.366849 -2.871232
2007-04-20 11:21:28 51°14.004 2°55.446 20.7203 0.066119 0.3669 -2.871232
2007-04-20 11:22:28 51°14.004 2°55.447 20.7271 0.066119 0.366959 -2.871232
2007-04-20 11:23:28 51°14.004 2°55.448 20.7351 0.066119 0.36701 -2.871232
2007-04-20 11:24:28 51°14.005 2°55.448 20.7367 0.066119 0.367062 -2.871232
2007-04-20 11:25:28 51°14.005 2°55.448 20.7376 0.066119 0.367121 -2.871232
2007-04-20 11:26:28 51°14.005 2°55.448 20.7556 0.066119 0.367173 -2.871232
2007-04-20 11:27:28 51°14.005 2°55.446 20.7389 0.066016 0.366641 -2.871232
2007-04-20 11:28:28 51°14.005 2°55.445 20.7582 0.066119 0.367283 -2.871232
2007-04-20 11:29:28 51°14.005 2°55.445 20.7536 0.066016 0.366745 -2.871232
2007-04-20 11:30:28 51°14.005 2°55.443 20.7459 0.066119 0.367386 -2.871232
2007-04-20 11:31:28 51°14.005 2°55.441 20.7432 0.066016 0.366848 -2.871232
2007-04-20 11:32:28 51°14.005 2°55.441 20.7382 0.066016 0.366899 -2.871232
2007-04-20 11:33:28 51°14.005 2°55.441 20.7395 0.066119 0.367549 -2.871232
2007-04-20 11:34:28 51°14.005 2°55.441 20.7472 0.066119 0.367593 -2.871232
2007-04-20 11:35:28 51°14.005 2°55.441 20.7578 0.066016 0.367054 -2.871232
2007-04-20 11:36:28 51°14.005 2°55.442 20.746 0.066016 0.367106 -2.871232
2007-04-20 11:37:28 51°14.005 2°55.444 20.7751 0.066016 0.367158 -2.871232
2007-04-20 11:38:28 51°14.005 2°55.445 20.7422 0.066016 0.367209 -2.871232
2007-04-20 11:39:28 51°14.004 2°55.446 20.8019 0.066016 0.367261 -2.871232
2007-04-20 11:40:28 51°14.004 2°55.447 20.7856 0.066016 0.367305 -2.871232
2007-04-20 11:41:28 51°14.004 2°55.447 20.7688 0.066016 0.367357 -2.871232
2007-04-20 11:43:28 51°14.005 2°55.45 20.8063 0.066016 0.367453 -2.871232
2007-04-20 11:44:28 51°14.005 2°55.45 20.8165 0.066016 0.367498 -2.871232
2007-04-20 11:45:28 51°14.005 2°55.45 20.7876 0.066016 0.367542 -2.871232
2007-04-20 11:46:28 51°14.006 2°55.45 20.7963 0.066016 0.367586 -2.871232
2007-04-20 11:47:28 51°14.005 2°55.45 20.8015 0.066016 0.367638 -2.871232
2007-04-20 11:48:28 51°14.005 2°55.451 20.8145 0.066016 0.367683 -2.871232
2007-04-20 11:49:28 51°14.005 2°55.451 20.8022 0.066016 0.367727 -2.871232
2007-04-20 11:50:28 51°14.005 2°55.45 20.7803 0.065913 0.367187 -2.871232
2007-04-20 11:51:28 51°14.005 2°55.45 20.8216 0.065913 0.367239 -2.871232
2007-04-20 11:52:28 51°14.005 2°55.45 20.8157 0.066016 0.367876 -2.871232
2007-04-20 11:53:28 51°14.005 2°55.45 20.8094 0.065913 0.367328 -2.871232
2007-04-20 11:54:28 51°14.006 2°55.45 20.8297 0.065913 0.367372 -2.871232
2007-04-20 11:55:28 51°14.007 2°55.452 20.8296 0.065913 0.367409 -2.871232
2007-04-20 11:56:28 51°13.998 2°55.467 20.813 0.065913 0.367461 -2.871232
2007-04-20 11:57:28 51°13.964 2°55.537 20.822 0.065913 0.367484 -2.871232
2007-04-20 11:58:28 51°13.941 2°55.635 20.897 0.065913 0.367521 -2.871232
2007-04-20 11:59:28 51°13.916 2°55.605 20.8291 0.065913 0.367587 -2.871232
2007-04-20 12:16:39 51°13.909 2°55.601 20.871 0.065913 0.367922 -2.871232